sensor_id;sensor_type;location;lat;lon;timestamp;temperature;humidity
55083;DHT22;40978;52.850;6.506;2023-03-23T00:02:23;11.20;99.90
55083;DHT22;40978;52.850;6.506;2023-03-23T00:04:49;11.10;99.90
55083;DHT22;40978;52.850;6.506;2023-03-23T00:07:16;11.10;99.90
55083;DHT22;40978;52.850;6.506;2023-03-23T00:09:50;11.10;99.90
55083;DHT22;40978;52.850;6.506;2023-03-23T00:12:30;11.20;99.90
55083;DHT22;40978;52.850;6.506;2023-03-23T00:15:01;11.20;99.90
55083;DHT22;40978;52.850;6.506;2023-03-23T00:17:28;11.20;99.90
55083;DHT22;40978;52.850;6.506;2023-03-23T00:19:53;11.10;99.90
55083;DHT22;40978;52.850;6.506;2023-03-23T00:22:22;11.10;99.90
55083;DHT22;40978;52.850;6.506;2023-03-23T00:24:51;11.10;99.90
55083;DHT22;40978;52.850;6.506;2023-03-23T00:27:17;11.10;99.90
55083;DHT22;40978;52.850;6.506;2023-03-23T00:29:43;11.10;99.90
55083;DHT22;40978;52.850;6.506;2023-03-23T00:32:12;11.10;99.90
55083;DHT22;40978;52.850;6.506;2023-03-23T00:34:40;11.10;99.90
55083;DHT22;40978;52.850;6.506;2023-03-23T00:37:07;11.10;99.90
55083;DHT22;40978;52.850;6.506;2023-03-23T00:39:33;11.10;99.90
55083;DHT22;40978;52.850;6.506;2023-03-23T00:42:03;11.10;99.90
55083;DHT22;40978;52.850;6.506;2023-03-23T00:44:30;11.10;99.90
55083;DHT22;40978;52.850;6.506;2023-03-23T00:46:56;11.10;99.90
55083;DHT22;40978;52.850;6.506;2023-03-23T00:49:24;11.10;99.90
55083;DHT22;40978;52.850;6.506;2023-03-23T00:51:51;11.10;99.90
55083;DHT22;40978;52.850;6.506;2023-03-23T00:54:17;11.10;99.90
55083;DHT22;40978;52.850;6.506;2023-03-23T00:56:43;11.10;99.90
55083;DHT22;40978;52.850;6.506;2023-03-23T00:59:09;11.10;99.90
55083;DHT22;40978;52.850;6.506;2023-03-23T01:01:35;11.20;99.90
55083;DHT22;40978;52.850;6.506;2023-03-23T01:04:02;11.10;99.90
55083;DHT22;40978;52.850;6.506;2023-03-23T01:06:41;11.20;99.90
55083;DHT22;40978;52.850;6.506;2023-03-23T01:09:10;11.10;99.90
55083;DHT22;40978;52.850;6.506;2023-03-23T01:11:43;11.10;99.90
55083;DHT22;40978;52.850;6.506;2023-03-23T01:14:09;11.10;99.90
55083;DHT22;40978;52.850;6.506;2023-03-23T01:16:35;11.20;99.90
55083;DHT22;40978;52.850;6.506;2023-03-23T01:19:01;11.10;99.90
55083;DHT22;40978;52.850;6.506;2023-03-23T01:21:27;11.10;99.90
55083;DHT22;40978;52.850;6.506;2023-03-23T01:23:53;11.20;99.90
55083;DHT22;40978;52.850;6.506;2023-03-23T01:26:22;11.10;99.90
55083;DHT22;40978;52.850;6.506;2023-03-23T01:28:49;11.10;99.90
55083;DHT22;40978;52.850;6.506;2023-03-23T01:31:16;11.20;99.90
55083;DHT22;40978;52.850;6.506;2023-03-23T01:33:44;11.20;99.90
55083;DHT22;40978;52.850;6.506;2023-03-23T01:36:15;11.20;99.90
55083;DHT22;40978;52.850;6.506;2023-03-23T01:38:43;11.20;99.90
55083;DHT22;40978;52.850;6.506;2023-03-23T01:41:10;11.20;99.90
55083;DHT22;40978;52.850;6.506;2023-03-23T01:43:36;11.20;99.90
55083;DHT22;40978;52.850;6.506;2023-03-23T01:46:02;11.20;99.90
55083;DHT22;40978;52.850;6.506;2023-03-23T01:48:31;11.20;99.90
55083;DHT22;40978;52.850;6.506;2023-03-23T01:51:03;11.20;99.90
55083;DHT22;40978;52.850;6.506;2023-03-23T01:53:36;11.20;99.90
55083;DHT22;40978;52.850;6.506;2023-03-23T01:56:03;11.10;99.90
55083;DHT22;40978;52.850;6.506;2023-03-23T01:58:32;11.10;99.90
55083;DHT22;40978;52.850;6.506;2023-03-23T02:01:02;11.10;99.90
55083;DHT22;40978;52.850;6.506;2023-03-23T02:03:29;11.10;99.90
55083;DHT22;40978;52.850;6.506;2023-03-23T02:05:57;11.20;99.90
55083;DHT22;40978;52.850;6.506;2023-03-23T02:08:29;11.10;99.90
55083;DHT22;40978;52.850;6.506;2023-03-23T02:10:58;11.10;99.90
55083;DHT22;40978;52.850;6.506;2023-03-23T02:13:24;11.20;99.90
55083;DHT22;40978;52.850;6.506;2023-03-23T02:27:08;11.10;99.90
55083;DHT22;40978;52.850;6.506;2023-03-23T02:30:07;11.10;99.90
55083;DHT22;40978;52.850;6.506;2023-03-23T02:33:07;11.10;99.90
55083;DHT22;40978;52.850;6.506;2023-03-23T02:38:37;11.10;99.90
55083;DHT22;40978;52.850;6.506;2023-03-23T02:41:07;11.10;99.90
55083;DHT22;40978;52.850;6.506;2023-03-23T02:43:42;11.10;99.90
55083;DHT22;40978;52.850;6.506;2023-03-23T02:46:10;11.10;99.90
55083;DHT22;40978;52.850;6.506;2023-03-23T02:48:38;11.10;99.90
55083;DHT22;40978;52.850;6.506;2023-03-23T02:51:05;11.10;99.90
55083;DHT22;40978;52.850;6.506;2023-03-23T02:53:36;11.10;99.90
55083;DHT22;40978;52.850;6.506;2023-03-23T02:56:03;11.10;99.90
55083;DHT22;40978;52.850;6.506;2023-03-23T02:58:31;11.10;99.90
55083;DHT22;40978;52.850;6.506;2023-03-23T03:00:58;11.00;99.90
55083;DHT22;40978;52.850;6.506;2023-03-23T03:03:28;11.10;99.90
55083;DHT22;40978;52.850;6.506;2023-03-23T03:08:57;11.00;99.90
55083;DHT22;40978;52.850;6.506;2023-03-23T03:11:25;11.00;99.90
55083;DHT22;40978;52.850;6.506;2023-03-23T03:14:04;11.00;99.90
55083;DHT22;40978;52.850;6.506;2023-03-23T03:17:01;11.00;99.90
55083;DHT22;40978;52.850;6.506;2023-03-23T03:19:33;11.00;99.90
55083;DHT22;40978;52.850;6.506;2023-03-23T03:22:01;11.00;99.90
55083;DHT22;40978;52.850;6.506;2023-03-23T03:24:29;11.00;99.90
55083;DHT22;40978;52.850;6.506;2023-03-23T03:26:57;11.00;99.90
55083;DHT22;40978;52.850;6.506;2023-03-23T03:29:28;11.10;99.90
55083;DHT22;40978;52.850;6.506;2023-03-23T03:31:56;11.10;99.90
55083;DHT22;40978;52.850;6.506;2023-03-23T03:34:24;11.10;99.90
55083;DHT22;40978;52.850;6.506;2023-03-23T03:36:51;11.10;99.90
55083;DHT22;40978;52.850;6.506;2023-03-23T03:39:19;11.10;99.90
55083;DHT22;40978;52.850;6.506;2023-03-23T03:41:46;11.20;99.90
55083;DHT22;40978;52.850;6.506;2023-03-23T03:44:13;11.20;99.90
55083;DHT22;40978;52.850;6.506;2023-03-23T03:46:38;11.20;99.90
55083;DHT22;40978;52.850;6.506;2023-03-23T03:49:07;11.20;99.90
55083;DHT22;40978;52.850;6.506;2023-03-23T03:51:34;11.20;99.90
55083;DHT22;40978;52.850;6.506;2023-03-23T03:54:00;11.20;99.90
55083;DHT22;40978;52.850;6.506;2023-03-23T03:56:26;11.20;99.90
55083;DHT22;40978;52.850;6.506;2023-03-23T03:58:52;11.20;99.90
55083;DHT22;40978;52.850;6.506;2023-03-23T04:01:21;11.20;99.90
55083;DHT22;40978;52.850;6.506;2023-03-23T04:03:48;11.20;99.90
55083;DHT22;40978;52.850;6.506;2023-03-23T04:06:15;11.20;99.90
55083;DHT22;40978;52.850;6.506;2023-03-23T04:08:41;11.20;99.90
55083;DHT22;40978;52.850;6.506;2023-03-23T04:11:09;11.30;99.90
55083;DHT22;40978;52.850;6.506;2023-03-23T04:13:36;11.30;99.90
55083;DHT22;40978;52.850;6.506;2023-03-23T04:16:02;11.30;99.90
55083;DHT22;40978;52.850;6.506;2023-03-23T04:18:27;11.30;99.90
55083;DHT22;40978;52.850;6.506;2023-03-23T04:20:54;11.30;99.90
55083;DHT22;40978;52.850;6.506;2023-03-23T04:23:25;11.30;99.90
55083;DHT22;40978;52.850;6.506;2023-03-23T04:25:51;11.30;99.90
55083;DHT22;40978;52.850;6.506;2023-03-23T04:28:19;11.30;99.90
55083;DHT22;40978;52.850;6.506;2023-03-23T04:30:50;11.30;99.90
55083;DHT22;40978;52.850;6.506;2023-03-23T04:33:19;11.30;99.90
55083;DHT22;40978;52.850;6.506;2023-03-23T04:35:45;11.30;99.90
55083;DHT22;40978;52.850;6.506;2023-03-23T04:38:17;11.30;99.90
55083;DHT22;40978;52.850;6.506;2023-03-23T04:40:46;11.40;99.90
55083;DHT22;40978;52.850;6.506;2023-03-23T04:43:13;11.40;99.90
55083;DHT22;40978;52.850;6.506;2023-03-23T04:45:40;11.30;99.90
55083;DHT22;40978;52.850;6.506;2023-03-23T04:48:11;11.30;99.90
55083;DHT22;40978;52.850;6.506;2023-03-23T04:50:37;11.30;99.90
55083;DHT22;40978;52.850;6.506;2023-03-23T04:53:04;11.30;99.90
55083;DHT22;40978;52.850;6.506;2023-03-23T04:55:31;11.20;99.90
55083;DHT22;40978;52.850;6.506;2023-03-23T04:58:05;11.10;99.90
55083;DHT22;40978;52.850;6.506;2023-03-23T05:00:34;11.00;99.90
55083;DHT22;40978;52.850;6.506;2023-03-23T05:03:00;10.80;99.90
55083;DHT22;40978;52.850;6.506;2023-03-23T05:05:27;10.70;99.90
55083;DHT22;40978;52.850;6.506;2023-03-23T05:07:55;10.50;99.90
55083;DHT22;40978;52.850;6.506;2023-03-23T05:10:21;10.40;99.90
55083;DHT22;40978;52.850;6.506;2023-03-23T05:12:46;10.30;99.90
55083;DHT22;40978;52.850;6.506;2023-03-23T05:15:14;10.20;99.90
55083;DHT22;40978;52.850;6.506;2023-03-23T05:17:40;10.20;99.90
55083;DHT22;40978;52.850;6.506;2023-03-23T05:20:11;10.20;99.90
55083;DHT22;40978;52.850;6.506;2023-03-23T05:22:38;10.20;99.90
55083;DHT22;40978;52.850;6.506;2023-03-23T05:25:05;10.20;99.90
55083;DHT22;40978;52.850;6.506;2023-03-23T05:27:35;10.20;99.90
55083;DHT22;40978;52.850;6.506;2023-03-23T05:30:00;10.20;99.90
55083;DHT22;40978;52.850;6.506;2023-03-23T05:32:27;10.20;99.90
55083;DHT22;40978;52.850;6.506;2023-03-23T05:34:59;10.30;99.90
55083;DHT22;40978;52.850;6.506;2023-03-23T05:37:27;10.30;99.90
55083;DHT22;40978;52.850;6.506;2023-03-23T05:39:58;10.30;99.90
55083;DHT22;40978;52.850;6.506;2023-03-23T05:42:31;10.40;99.90
55083;DHT22;40978;52.850;6.506;2023-03-23T05:44:56;10.40;99.90
55083;DHT22;40978;52.850;6.506;2023-03-23T05:47:23;10.40;99.90
55083;DHT22;40978;52.850;6.506;2023-03-23T05:49:51;10.40;99.90
55083;DHT22;40978;52.850;6.506;2023-03-23T05:52:18;10.40;99.90
55083;DHT22;40978;52.850;6.506;2023-03-23T05:54:44;10.40;99.90
55083;DHT22;40978;52.850;6.506;2023-03-23T05:57:10;10.40;99.90
55083;DHT22;40978;52.850;6.506;2023-03-23T05:59:36;10.30;99.90
55083;DHT22;40978;52.850;6.506;2023-03-23T06:02:03;10.30;99.90
55083;DHT22;40978;52.850;6.506;2023-03-23T06:04:29;10.20;99.90
55083;DHT22;40978;52.850;6.506;2023-03-23T06:06:55;10.20;99.90
55083;DHT22;40978;52.850;6.506;2023-03-23T06:09:21;10.20;99.90
55083;DHT22;40978;52.850;6.506;2023-03-23T06:11:48;10.10;99.90
55083;DHT22;40978;52.850;6.506;2023-03-23T06:14:14;10.10;99.90
55083;DHT22;40978;52.850;6.506;2023-03-23T06:16:41;10.00;99.90
55083;DHT22;40978;52.850;6.506;2023-03-23T06:19:07;10.10;99.90
55083;DHT22;40978;52.850;6.506;2023-03-23T06:21:33;10.10;99.90
55083;DHT22;40978;52.850;6.506;2023-03-23T06:23:59;10.10;99.90
55083;DHT22;40978;52.850;6.506;2023-03-23T06:26:38;10.00;99.90
55083;DHT22;40978;52.850;6.506;2023-03-23T06:29:05;10.10;99.90
55083;DHT22;40978;52.850;6.506;2023-03-23T06:31:45;10.00;99.90
55083;DHT22;40978;52.850;6.506;2023-03-23T06:34:13;10.20;99.90
55083;DHT22;40978;52.850;6.506;2023-03-23T06:36:38;10.10;99.90
55083;DHT22;40978;52.850;6.506;2023-03-23T06:39:05;10.20;99.90
55083;DHT22;40978;52.850;6.506;2023-03-23T06:41:31;10.20;99.90
55083;DHT22;40978;52.850;6.506;2023-03-23T06:43:58;10.20;99.90
55083;DHT22;40978;52.850;6.506;2023-03-23T06:46:24;10.20;99.90
55083;DHT22;40978;52.850;6.506;2023-03-23T06:48:50;10.30;99.90
55083;DHT22;40978;52.850;6.506;2023-03-23T06:51:17;10.30;99.90
55083;DHT22;40978;52.850;6.506;2023-03-23T06:53:43;10.40;99.90
55083;DHT22;40978;52.850;6.506;2023-03-23T06:56:09;10.40;99.90
55083;DHT22;40978;52.850;6.506;2023-03-23T06:58:35;10.40;99.90
55083;DHT22;40978;52.850;6.506;2023-03-23T07:01:01;10.50;99.90
55083;DHT22;40978;52.850;6.506;2023-03-23T07:03:27;10.50;99.90
55083;DHT22;40978;52.850;6.506;2023-03-23T07:05:54;10.50;99.90
55083;DHT22;40978;52.850;6.506;2023-03-23T07:08:20;10.60;99.90
55083;DHT22;40978;52.850;6.506;2023-03-23T07:10:47;10.60;99.90
55083;DHT22;40978;52.850;6.506;2023-03-23T07:13:13;10.70;99.90
55083;DHT22;40978;52.850;6.506;2023-03-23T07:15:39;10.70;99.90
55083;DHT22;40978;52.850;6.506;2023-03-23T07:18:06;10.70;99.90
55083;DHT22;40978;52.850;6.506;2023-03-23T07:20:35;10.80;99.90
55083;DHT22;40978;52.850;6.506;2023-03-23T07:23:01;10.80;99.90
55083;DHT22;40978;52.850;6.506;2023-03-23T07:25:28;10.80;99.90
55083;DHT22;40978;52.850;6.506;2023-03-23T07:27:53;10.90;99.90
55083;DHT22;40978;52.850;6.506;2023-03-23T07:30:19;10.80;99.90
55083;DHT22;40978;52.850;6.506;2023-03-23T07:32:45;10.90;99.90
55083;DHT22;40978;52.850;6.506;2023-03-23T07:35:11;11.00;99.90
55083;DHT22;40978;52.850;6.506;2023-03-23T07:37:37;11.10;99.90
55083;DHT22;40978;52.850;6.506;2023-03-23T07:40:04;11.20;99.90
55083;DHT22;40978;52.850;6.506;2023-03-23T07:42:34;11.30;99.90
55083;DHT22;40978;52.850;6.506;2023-03-23T07:44:59;11.40;99.90
55083;DHT22;40978;52.850;6.506;2023-03-23T07:47:25;11.50;99.90
55083;DHT22;40978;52.850;6.506;2023-03-23T07:49:51;11.50;99.90
55083;DHT22;40978;52.850;6.506;2023-03-23T07:52:17;11.50;99.90
55083;DHT22;40978;52.850;6.506;2023-03-23T07:54:43;11.60;99.90
55083;DHT22;40978;52.850;6.506;2023-03-23T07:57:08;11.60;99.90
55083;DHT22;40978;52.850;6.506;2023-03-23T07:59:34;11.60;99.90
55083;DHT22;40978;52.850;6.506;2023-03-23T08:02:00;11.60;99.90
55083;DHT22;40978;52.850;6.506;2023-03-23T08:04:26;11.70;99.90
55083;DHT22;40978;52.850;6.506;2023-03-23T08:06:52;11.70;99.90
55083;DHT22;40978;52.850;6.506;2023-03-23T08:09:18;11.70;99.90
55083;DHT22;40978;52.850;6.506;2023-03-23T08:11:44;11.60;99.90
55083;DHT22;40978;52.850;6.506;2023-03-23T08:14:09;11.70;99.90
55083;DHT22;40978;52.850;6.506;2023-03-23T08:16:35;11.70;99.90
55083;DHT22;40978;52.850;6.506;2023-03-23T08:19:01;11.70;99.90
55083;DHT22;40978;52.850;6.506;2023-03-23T08:21:27;11.70;99.90
55083;DHT22;40978;52.850;6.506;2023-03-23T08:23:54;11.70;99.90
55083;DHT22;40978;52.850;6.506;2023-03-23T08:26:20;11.80;99.90
55083;DHT22;40978;52.850;6.506;2023-03-23T08:28:46;11.80;99.90
55083;DHT22;40978;52.850;6.506;2023-03-23T08:31:13;11.80;99.90
55083;DHT22;40978;52.850;6.506;2023-03-23T08:33:40;11.80;99.90
55083;DHT22;40978;52.850;6.506;2023-03-23T08:36:07;11.90;99.90
55083;DHT22;40978;52.850;6.506;2023-03-23T08:38:34;11.90;99.90
55083;DHT22;40978;52.850;6.506;2023-03-23T08:41:02;11.90;99.90
55083;DHT22;40978;52.850;6.506;2023-03-23T08:43:30;11.90;99.90
55083;DHT22;40978;52.850;6.506;2023-03-23T08:45:57;11.90;99.90
55083;DHT22;40978;52.850;6.506;2023-03-23T08:48:23;12.30;99.90
55083;DHT22;40978;52.850;6.506;2023-03-23T08:50:49;12.40;99.90
55083;DHT22;40978;52.850;6.506;2023-03-23T08:53:18;12.40;99.90
55083;DHT22;40978;52.850;6.506;2023-03-23T08:55:43;12.60;99.90
55083;DHT22;40978;52.850;6.506;2023-03-23T08:58:09;13.10;99.90
55083;DHT22;40978;52.850;6.506;2023-03-23T09:00:35;13.10;99.90
55083;DHT22;40978;52.850;6.506;2023-03-23T09:03:01;13.00;99.90
55083;DHT22;40978;52.850;6.506;2023-03-23T09:05:28;12.80;99.90
55083;DHT22;40978;52.850;6.506;2023-03-23T09:07:56;12.70;99.90
55083;DHT22;40978;52.850;6.506;2023-03-23T09:10:26;12.70;99.90
55083;DHT22;40978;52.850;6.506;2023-03-23T09:12:53;13.00;99.90
55083;DHT22;40978;52.850;6.506;2023-03-23T09:15:19;13.50;99.90
55083;DHT22;40978;52.850;6.506;2023-03-23T09:17:50;14.00;99.90
55083;DHT22;40978;52.850;6.506;2023-03-23T09:20:19;14.00;99.90
55083;DHT22;40978;52.850;6.506;2023-03-23T09:22:49;13.80;99.90
55083;DHT22;40978;52.850;6.506;2023-03-23T09:25:17;13.50;99.90
55083;DHT22;40978;52.850;6.506;2023-03-23T09:27:48;13.60;99.90
55083;DHT22;40978;52.850;6.506;2023-03-23T09:30:17;14.00;99.90
55083;DHT22;40978;52.850;6.506;2023-03-23T09:32:44;14.10;99.90
55083;DHT22;40978;52.850;6.506;2023-03-23T09:35:11;13.80;99.90
55083;DHT22;40978;52.850;6.506;2023-03-23T09:37:39;13.60;99.90
55083;DHT22;40978;52.850;6.506;2023-03-23T09:40:09;13.30;99.90
55083;DHT22;40978;52.850;6.506;2023-03-23T09:43:13;13.40;99.90
55083;DHT22;40978;52.850;6.506;2023-03-23T09:51:32;15.90;99.90
55083;DHT22;40978;52.850;6.506;2023-03-23T09:54:10;17.10;99.90
55083;DHT22;40978;52.850;6.506;2023-03-23T09:56:37;18.00;99.90
55083;DHT22;40978;52.850;6.506;2023-03-23T09:59:36;18.50;99.90
55083;DHT22;40978;52.850;6.506;2023-03-23T10:05:46;18.50;99.90
55083;DHT22;40978;52.850;6.506;2023-03-23T10:07:52;18.50;99.90
55083;DHT22;40978;52.850;6.506;2023-03-23T10:10:18;18.80;99.90
55083;DHT22;40978;52.850;6.506;2023-03-23T10:13:03;19.00;99.90
55083;DHT22;40978;52.850;6.506;2023-03-23T10:15:33;19.20;99.90
55083;DHT22;40978;52.850;6.506;2023-03-23T10:20:35;18.10;99.90
55083;DHT22;40978;52.850;6.506;2023-03-23T10:26:03;18.60;99.90
55083;DHT22;40978;52.850;6.506;2023-03-23T10:28:41;18.00;99.90
55083;DHT22;40978;52.850;6.506;2023-03-23T10:31:20;17.20;99.90
55083;DHT22;40978;52.850;6.506;2023-03-23T10:33:49;17.20;99.90
55083;DHT22;40978;52.850;6.506;2023-03-23T10:36:35;17.60;99.90
55083;DHT22;40978;52.850;6.506;2023-03-23T10:41:29;18.80;99.90
55083;DHT22;40978;52.850;6.506;2023-03-23T10:43:56;19.30;99.90
55083;DHT22;40978;52.850;6.506;2023-03-23T10:46:45;19.70;99.90
55083;DHT22;40978;52.850;6.506;2023-03-23T10:49:24;20.00;99.90
55083;DHT22;40978;52.850;6.506;2023-03-23T10:54:38;20.10;99.90
55083;DHT22;40978;52.850;6.506;2023-03-23T10:57:35;20.30;99.90
55083;DHT22;40978;52.850;6.506;2023-03-23T11:00:05;20.40;99.90
55083;DHT22;40978;52.850;6.506;2023-03-23T11:03:05;20.30;99.90
55083;DHT22;40978;52.850;6.506;2023-03-23T11:05:42;19.70;99.90
55083;DHT22;40978;52.850;6.506;2023-03-23T11:08:19;19.70;99.90
55083;DHT22;40978;52.850;6.506;2023-03-23T11:10:52;19.90;99.90
55083;DHT22;40978;52.850;6.506;2023-03-23T11:13:19;19.60;99.90
55083;DHT22;40978;52.850;6.506;2023-03-23T11:15:47;19.40;99.90
55083;DHT22;40978;52.850;6.506;2023-03-23T11:20:57;19.60;99.90
55083;DHT22;40978;52.850;6.506;2023-03-23T11:23:24;19.90;99.90
55083;DHT22;40978;52.850;6.506;2023-03-23T11:26:06;20.10;99.90
55083;DHT22;40978;52.850;6.506;2023-03-23T11:28:35;19.50;99.90
55083;DHT22;40978;52.850;6.506;2023-03-23T11:31:04;18.60;99.90
55083;DHT22;40978;52.850;6.506;2023-03-23T11:36:17;18.40;99.90
55083;DHT22;40978;52.850;6.506;2023-03-23T11:38:44;18.10;99.90
55083;DHT22;40978;52.850;6.506;2023-03-23T11:41:11;17.70;99.90
55083;DHT22;40978;52.850;6.506;2023-03-23T11:43:44;17.40;99.90
55083;DHT22;40978;52.850;6.506;2023-03-23T11:46:20;17.10;99.90
55083;DHT22;40978;52.850;6.506;2023-03-23T11:49:14;17.30;99.90
55083;DHT22;40978;52.850;6.506;2023-03-23T11:51:54;18.30;99.90
55083;DHT22;40978;52.850;6.506;2023-03-23T11:56:56;19.20;99.90
55083;DHT22;40978;52.850;6.506;2023-03-23T11:59:31;19.40;99.90
55083;DHT22;40978;52.850;6.506;2023-03-23T12:16:26;19.90;99.90
55083;DHT22;40978;52.850;6.506;2023-03-23T12:19:24;18.70;99.90
55083;DHT22;40978;52.850;6.506;2023-03-23T12:22:16;17.70;99.90
55083;DHT22;40978;52.850;6.506;2023-03-23T12:30:42;16.30;99.90
55083;DHT22;40978;52.850;6.506;2023-03-23T12:41:58;15.20;99.90
55083;DHT22;40978;52.850;6.506;2023-03-23T12:44:38;15.10;99.90
55083;DHT22;40978;52.850;6.506;2023-03-23T12:49:53;15.50;99.90
55083;DHT22;40978;52.850;6.506;2023-03-23T12:52:38;16.10;99.90
55083;DHT22;40978;52.850;6.506;2023-03-23T12:55:16;16.20;99.90
55083;DHT22;40978;52.850;6.506;2023-03-23T13:00:18;17.40;99.90
55083;DHT22;40978;52.850;6.506;2023-03-23T13:03:07;18.50;99.90
55083;DHT22;40978;52.850;6.506;2023-03-23T13:05:47;19.20;99.90
55083;DHT22;40978;52.850;6.506;2023-03-23T13:08:27;18.50;99.90
55083;DHT22;40978;52.850;6.506;2023-03-23T13:10:55;18.40;99.90
55083;DHT22;40978;52.850;6.506;2023-03-23T13:13:39;19.30;99.90
55083;DHT22;40978;52.850;6.506;2023-03-23T13:16:26;20.00;99.90
55083;DHT22;40978;52.850;6.506;2023-03-23T13:21:30;21.10;99.90
55083;DHT22;40978;52.850;6.506;2023-03-23T13:24:06;21.40;99.90
55083;DHT22;40978;52.850;6.506;2023-03-23T13:26:38;21.60;99.00
55083;DHT22;40978;52.850;6.506;2023-03-23T13:29:19;21.70;98.70
55083;DHT22;40978;52.850;6.506;2023-03-23T13:31:46;21.50;98.70
55083;DHT22;40978;52.850;6.506;2023-03-23T13:36:54;19.70;98.90
55083;DHT22;40978;52.850;6.506;2023-03-23T13:39:26;18.70;99.20
55083;DHT22;40978;52.850;6.506;2023-03-23T13:42:00;18.50;99.90
55083;DHT22;40978;52.850;6.506;2023-03-23T13:44:38;18.30;99.90
55083;DHT22;40978;52.850;6.506;2023-03-23T13:47:08;17.80;99.90
55083;DHT22;40978;52.850;6.506;2023-03-23T13:49:46;17.50;99.90
55083;DHT22;40978;52.850;6.506;2023-03-23T13:52:24;17.20;99.90
55083;DHT22;40978;52.850;6.506;2023-03-23T13:54:53;16.80;99.90
55083;DHT22;40978;52.850;6.506;2023-03-23T13:57:37;16.50;99.90
55083;DHT22;40978;52.850;6.506;2023-03-23T14:06:10;16.20;99.90
55083;DHT22;40978;52.850;6.506;2023-03-23T14:08:40;16.20;99.90
55083;DHT22;40978;52.850;6.506;2023-03-23T14:11:11;16.10;99.90
55083;DHT22;40978;52.850;6.506;2023-03-23T14:13:59;16.00;99.90
55083;DHT22;40978;52.850;6.506;2023-03-23T14:16:41;15.80;99.90
55083;DHT22;40978;52.850;6.506;2023-03-23T14:21:52;15.50;99.90
55083;DHT22;40978;52.850;6.506;2023-03-23T14:24:21;15.60;99.90
55083;DHT22;40978;52.850;6.506;2023-03-23T14:26:49;15.50;99.90
55083;DHT22;40978;52.850;6.506;2023-03-23T14:29:18;15.40;99.90
55083;DHT22;40978;52.850;6.506;2023-03-23T14:31:50;15.40;99.90
55083;DHT22;40978;52.850;6.506;2023-03-23T14:34:19;15.30;99.90
55083;DHT22;40978;52.850;6.506;2023-03-23T14:36:46;15.30;99.90
55083;DHT22;40978;52.850;6.506;2023-03-23T14:41:47;15.40;99.90
55083;DHT22;40978;52.850;6.506;2023-03-23T14:44:17;15.30;99.90
55083;DHT22;40978;52.850;6.506;2023-03-23T14:46:46;15.30;99.90
55083;DHT22;40978;52.850;6.506;2023-03-23T14:49:15;15.30;99.90
55083;DHT22;40978;52.850;6.506;2023-03-23T14:51:53;15.20;99.90
55083;DHT22;40978;52.850;6.506;2023-03-23T14:54:27;15.20;99.90
55083;DHT22;40978;52.850;6.506;2023-03-23T14:56:54;15.10;99.90
55083;DHT22;40978;52.850;6.506;2023-03-23T14:59:21;15.10;99.90
55083;DHT22;40978;52.850;6.506;2023-03-23T15:01:48;15.10;99.90
55083;DHT22;40978;52.850;6.506;2023-03-23T15:06:43;15.20;99.90
55083;DHT22;40978;52.850;6.506;2023-03-23T15:09:15;15.20;99.90
55083;DHT22;40978;52.850;6.506;2023-03-23T15:11:49;15.10;99.90
55083;DHT22;40978;52.850;6.506;2023-03-23T15:14:21;15.10;99.90
55083;DHT22;40978;52.850;6.506;2023-03-23T15:16:52;15.10;99.90
55083;DHT22;40978;52.850;6.506;2023-03-23T15:21:54;15.00;99.90
55083;DHT22;40978;52.850;6.506;2023-03-23T15:24:25;14.90;99.90
55083;DHT22;40978;52.850;6.506;2023-03-23T15:26:53;14.90;99.90
55083;DHT22;40978;52.850;6.506;2023-03-23T15:29:23;14.90;99.90
55083;DHT22;40978;52.850;6.506;2023-03-23T15:31:53;14.80;99.90
55083;DHT22;40978;52.850;6.506;2023-03-23T15:34:24;14.70;99.90
55083;DHT22;40978;52.850;6.506;2023-03-23T15:36:54;14.70;99.90
55083;DHT22;40978;52.850;6.506;2023-03-23T15:39:21;14.60;99.90
55083;DHT22;40978;52.850;6.506;2023-03-23T15:41:49;14.60;99.90
55083;DHT22;40978;52.850;6.506;2023-03-23T15:44:27;14.60;99.90
55083;DHT22;40978;52.850;6.506;2023-03-23T15:47:12;14.60;99.90
55083;DHT22;40978;52.850;6.506;2023-03-23T15:49:39;14.50;99.90
55083;DHT22;40978;52.850;6.506;2023-03-23T15:52:09;14.50;99.90
55083;DHT22;40978;52.850;6.506;2023-03-23T15:54:35;14.50;99.90
55083;DHT22;40978;52.850;6.506;2023-03-23T15:57:01;14.50;99.90
55083;DHT22;40978;52.850;6.506;2023-03-23T15:59:27;14.40;99.90
55083;DHT22;40978;52.850;6.506;2023-03-23T16:01:53;14.40;99.90
55083;DHT22;40978;52.850;6.506;2023-03-23T16:04:19;14.30;99.90
55083;DHT22;40978;52.850;6.506;2023-03-23T16:06:46;14.30;99.90
55083;DHT22;40978;52.850;6.506;2023-03-23T16:09:17;14.30;99.90
55083;DHT22;40978;52.850;6.506;2023-03-23T16:11:43;14.30;99.90
55083;DHT22;40978;52.850;6.506;2023-03-23T16:14:09;14.20;99.90
55083;DHT22;40978;52.850;6.506;2023-03-23T16:16:43;14.20;99.90
55083;DHT22;40978;52.850;6.506;2023-03-23T16:19:12;14.10;99.90
55083;DHT22;40978;52.850;6.506;2023-03-23T16:21:38;14.10;99.90
55083;DHT22;40978;52.850;6.506;2023-03-23T16:24:04;14.10;99.90
55083;DHT22;40978;52.850;6.506;2023-03-23T16:26:30;14.10;99.90
55083;DHT22;40978;52.850;6.506;2023-03-23T16:28:55;14.10;99.90
55083;DHT22;40978;52.850;6.506;2023-03-23T16:31:21;14.10;99.90
55083;DHT22;40978;52.850;6.506;2023-03-23T16:33:47;14.10;99.90
55083;DHT22;40978;52.850;6.506;2023-03-23T16:36:13;14.10;99.90
55083;DHT22;40978;52.850;6.506;2023-03-23T16:38:40;14.10;99.90
55083;DHT22;40978;52.850;6.506;2023-03-23T16:41:07;14.10;99.90
55083;DHT22;40978;52.850;6.506;2023-03-23T16:43:33;14.00;99.90
55083;DHT22;40978;52.850;6.506;2023-03-23T16:45:59;14.10;99.90
55083;DHT22;40978;52.850;6.506;2023-03-23T16:48:25;14.10;99.90
55083;DHT22;40978;52.850;6.506;2023-03-23T16:50:52;14.00;99.90
55083;DHT22;40978;52.850;6.506;2023-03-23T16:53:19;14.00;99.90
55083;DHT22;40978;52.850;6.506;2023-03-23T16:55:45;13.90;99.90
55083;DHT22;40978;52.850;6.506;2023-03-23T16:58:14;13.80;99.90
55083;DHT22;40978;52.850;6.506;2023-03-23T17:00:40;13.70;99.90
55083;DHT22;40978;52.850;6.506;2023-03-23T17:03:07;13.70;99.90
55083;DHT22;40978;52.850;6.506;2023-03-23T17:05:34;13.60;99.90
55083;DHT22;40978;52.850;6.506;2023-03-23T17:08:00;13.50;99.90
55083;DHT22;40978;52.850;6.506;2023-03-23T17:10:27;13.50;99.90
55083;DHT22;40978;52.850;6.506;2023-03-23T17:12:54;13.50;99.90
55083;DHT22;40978;52.850;6.506;2023-03-23T17:15:20;13.40;99.90
55083;DHT22;40978;52.850;6.506;2023-03-23T17:17:46;13.40;99.90
55083;DHT22;40978;52.850;6.506;2023-03-23T17:20:12;13.30;99.90
55083;DHT22;40978;52.850;6.506;2023-03-23T17:22:39;13.30;99.90
55083;DHT22;40978;52.850;6.506;2023-03-23T17:25:05;13.30;99.90
55083;DHT22;40978;52.850;6.506;2023-03-23T17:27:33;13.20;99.90